sensor_id;sensor_type;location;lat;lon;timestamp;P1;durP1;ratioP1;P2;durP2;ratioP2
15982;SDS011;14442;50.196;8.096;2023-10-09T00:01:02;6.13;;;1.70;;
15982;SDS011;14442;50.196;8.096;2023-10-09T00:03:38;2.90;;;1.33;;
15982;SDS011;14442;50.196;8.096;2023-10-09T00:06:06;3.40;;;1.73;;
15982;SDS011;14442;50.196;8.096;2023-10-09T00:08:37;1.97;;;1.40;;
15982;SDS011;14442;50.196;8.096;2023-10-09T00:11:09;1.50;;;1.37;;
15982;SDS011;14442;50.196;8.096;2023-10-09T00:13:41;4.73;;;1.63;;
15982;SDS011;14442;50.196;8.096;2023-10-09T00:16:18;2.00;;;1.10;;
15982;SDS011;14442;50.196;8.096;2023-10-09T00:18:58;1.87;;;1.17;;
15982;SDS011;14442;50.196;8.096;2023-10-09T00:21:39;1.37;;;1.23;;
15982;SDS011;14442;50.196;8.096;2023-10-09T00:24:06;2.43;;;1.20;;
15982;SDS011;14442;50.196;8.096;2023-10-09T00:26:38;5.00;;;1.50;;
15982;SDS011;14442;50.196;8.096;2023-10-09T00:29:10;3.60;;;1.37;;
15982;SDS011;14442;50.196;8.096;2023-10-09T00:31:41;2.33;;;1.37;;
15982;SDS011;14442;50.196;8.096;2023-10-09T00:34:15;2.57;;;1.40;;
15982;SDS011;14442;50.196;8.096;2023-10-09T00:36:44;5.90;;;1.47;;
15982;SDS011;14442;50.196;8.096;2023-10-09T00:39:16;2.50;;;1.23;;
15982;SDS011;14442;50.196;8.096;2023-10-09T00:41:55;2.13;;;1.23;;
15982;SDS011;14442;50.196;8.096;2023-10-09T00:44:23;2.20;;;1.60;;
15982;SDS011;14442;50.196;8.096;2023-10-09T00:47:03;3.03;;;1.30;;
15982;SDS011;14442;50.196;8.096;2023-10-09T00:49:36;2.00;;;1.07;;
15982;SDS011;14442;50.196;8.096;2023-10-09T00:52:07;3.00;;;1.43;;
15982;SDS011;14442;50.196;8.096;2023-10-09T00:54:43;2.63;;;1.30;;
15982;SDS011;14442;50.196;8.096;2023-10-09T00:57:16;1.37;;;1.27;;
15982;SDS011;14442;50.196;8.096;2023-10-09T00:59:49;2.67;;;1.30;;
15982;SDS011;14442;50.196;8.096;2023-10-09T01:02:25;1.37;;;1.00;;
15982;SDS011;14442;50.196;8.096;2023-10-09T01:05:01;1.93;;;1.20;;
15982;SDS011;14442;50.196;8.096;2023-10-09T01:07:43;1.30;;;1.20;;
15982;SDS011;14442;50.196;8.096;2023-10-09T01:10:13;1.10;;;1.00;;
15982;SDS011;14442;50.196;8.096;2023-10-09T01:12:42;1.70;;;1.20;;
15982;SDS011;14442;50.196;8.096;2023-10-09T01:15:11;2.10;;;1.00;;
15982;SDS011;14442;50.196;8.096;2023-10-09T01:18:03;0.90;;;0.80;;
15982;SDS011;14442;50.196;8.096;2023-10-09T01:20:32;1.27;;;1.00;;
15982;SDS011;14442;50.196;8.096;2023-10-09T01:23:08;1.60;;;1.27;;
15982;SDS011;14442;50.196;8.096;2023-10-09T01:25:36;2.40;;;0.77;;
15982;SDS011;14442;50.196;8.096;2023-10-09T01:28:09;2.67;;;1.00;;
15982;SDS011;14442;50.196;8.096;2023-10-09T01:30:38;1.30;;;1.20;;
15982;SDS011;14442;50.196;8.096;2023-10-09T01:33:06;1.33;;;1.10;;
15982;SDS011;14442;50.196;8.096;2023-10-09T01:35:47;4.23;;;1.20;;
15982;SDS011;14442;50.196;8.096;2023-10-09T01:38:17;1.20;;;1.10;;
15982;SDS011;14442;50.196;8.096;2023-10-09T01:40:55;0.90;;;0.90;;
15982;SDS011;14442;50.196;8.096;2023-10-09T01:43:29;1.77;;;0.80;;
15982;SDS011;14442;50.196;8.096;2023-10-09T01:45:59;1.40;;;1.30;;
15982;SDS011;14442;50.196;8.096;2023-10-09T01:48:26;1.63;;;0.93;;
15982;SDS011;14442;50.196;8.096;2023-10-09T01:50:53;1.00;;;1.00;;
15982;SDS011;14442;50.196;8.096;2023-10-09T01:53:21;1.77;;;1.20;;
15982;SDS011;14442;50.196;8.096;2023-10-09T01:55:53;1.23;;;1.10;;
15982;SDS011;14442;50.196;8.096;2023-10-09T01:58:20;1.33;;;0.93;;
15982;SDS011;14442;50.196;8.096;2023-10-09T02:00:53;1.70;;;0.90;;
15982;SDS011;14442;50.196;8.096;2023-10-09T02:03:21;1.13;;;1.03;;
15982;SDS011;14442;50.196;8.096;2023-10-09T02:05:49;1.23;;;0.80;;
15982;SDS011;14442;50.196;8.096;2023-10-09T02:08:17;2.07;;;0.87;;
15982;SDS011;14442;50.196;8.096;2023-10-09T02:10:48;1.97;;;0.70;;
15982;SDS011;14442;50.196;8.096;2023-10-09T02:13:15;0.83;;;0.83;;
15982;SDS011;14442;50.196;8.096;2023-10-09T02:15:43;0.80;;;0.80;;
15982;SDS011;14442;50.196;8.096;2023-10-09T02:18:23;2.07;;;0.93;;
15982;SDS011;14442;50.196;8.096;2023-10-09T02:21:05;1.10;;;1.07;;
15982;SDS011;14442;50.196;8.096;2023-10-09T02:23:38;4.07;;;1.00;;
15982;SDS011;14442;50.196;8.096;2023-10-09T02:26:13;1.83;;;1.00;;
15982;SDS011;14442;50.196;8.096;2023-10-09T02:28:44;1.20;;;1.10;;
15982;SDS011;14442;50.196;8.096;2023-10-09T02:31:23;1.40;;;1.00;;
15982;SDS011;14442;50.196;8.096;2023-10-09T02:33:52;2.10;;;1.10;;
15982;SDS011;14442;50.196;8.096;2023-10-09T02:36:20;1.03;;;0.93;;
15982;SDS011;14442;50.196;8.096;2023-10-09T02:38:47;0.80;;;0.80;;
15982;SDS011;14442;50.196;8.096;2023-10-09T02:41:19;2.23;;;1.33;;
15982;SDS011;14442;50.196;8.096;2023-10-09T02:43:53;3.67;;;1.10;;
15982;SDS011;14442;50.196;8.096;2023-10-09T02:46:21;1.77;;;1.00;;
15982;SDS011;14442;50.196;8.096;2023-10-09T02:48:54;0.73;;;0.73;;
15982;SDS011;14442;50.196;8.096;2023-10-09T02:51:22;2.83;;;1.13;;
15982;SDS011;14442;50.196;8.096;2023-10-09T02:54:02;2.57;;;0.90;;
15982;SDS011;14442;50.196;8.096;2023-10-09T02:56:44;1.07;;;0.97;;
15982;SDS011;14442;50.196;8.096;2023-10-09T02:59:12;2.00;;;1.17;;
15982;SDS011;14442;50.196;8.096;2023-10-09T03:01:40;0.80;;;0.80;;
15982;SDS011;14442;50.196;8.096;2023-10-09T03:04:07;1.53;;;1.00;;
15982;SDS011;14442;50.196;8.096;2023-10-09T03:06:36;1.53;;;1.00;;
15982;SDS011;14442;50.196;8.096;2023-10-09T03:09:08;4.80;;;1.13;;
15982;SDS011;14442;50.196;8.096;2023-10-09T03:11:44;1.73;;;1.00;;
15982;SDS011;14442;50.196;8.096;2023-10-09T03:14:13;4.73;;;1.00;;
15982;SDS011;14442;50.196;8.096;2023-10-09T03:16:40;1.43;;;1.10;;
15982;SDS011;14442;50.196;8.096;2023-10-09T03:19:08;4.13;;;0.80;;
15982;SDS011;14442;50.196;8.096;2023-10-09T03:21:35;1.97;;;0.90;;
15982;SDS011;14442;50.196;8.096;2023-10-09T03:24:02;2.03;;;0.90;;
15982;SDS011;14442;50.196;8.096;2023-10-09T03:26:31;3.33;;;1.20;;
15982;SDS011;14442;50.196;8.096;2023-10-09T03:28:59;4.57;;;1.30;;
15982;SDS011;14442;50.196;8.096;2023-10-09T03:31:26;3.77;;;1.30;;
15982;SDS011;14442;50.196;8.096;2023-10-09T03:33:56;4.20;;;1.07;;
15982;SDS011;14442;50.196;8.096;2023-10-09T03:36:22;3.80;;;1.30;;
15982;SDS011;14442;50.196;8.096;2023-10-09T03:38:51;1.63;;;1.50;;
15982;SDS011;14442;50.196;8.096;2023-10-09T03:41:19;1.43;;;0.70;;
15982;SDS011;14442;50.196;8.096;2023-10-09T03:43:46;2.77;;;1.20;;
15982;SDS011;14442;50.196;8.096;2023-10-09T03:46:14;2.80;;;1.10;;
15982;SDS011;14442;50.196;8.096;2023-10-09T03:48:46;2.40;;;1.13;;
15982;SDS011;14442;50.196;8.096;2023-10-09T03:51:13;4.37;;;1.07;;
15982;SDS011;14442;50.196;8.096;2023-10-09T03:53:46;13.83;;;1.70;;
15982;SDS011;14442;50.196;8.096;2023-10-09T03:56:13;13.30;;;2.00;;
15982;SDS011;14442;50.196;8.096;2023-10-09T03:58:41;9.30;;;1.60;;
15982;SDS011;14442;50.196;8.096;2023-10-09T04:01:10;9.53;;;1.80;;
15982;SDS011;14442;50.196;8.096;2023-10-09T04:03:44;9.60;;;1.73;;
15982;SDS011;14442;50.196;8.096;2023-10-09T04:06:10;7.83;;;1.50;;
15982;SDS011;14442;50.196;8.096;2023-10-09T04:08:37;8.53;;;1.60;;
15982;SDS011;14442;50.196;8.096;2023-10-09T04:11:12;6.70;;;1.23;;
15982;SDS011;14442;50.196;8.096;2023-10-09T04:13:42;8.17;;;1.40;;
15982;SDS011;14442;50.196;8.096;2023-10-09T04:16:11;26.00;;;2.50;;
15982;SDS011;14442;50.196;8.096;2023-10-09T04:18:53;22.67;;;3.50;;
15982;SDS011;14442;50.196;8.096;2023-10-09T04:21:21;26.93;;;3.43;;
15982;SDS011;14442;50.196;8.096;2023-10-09T04:23:59;20.00;;;3.10;;
15982;SDS011;14442;50.196;8.096;2023-10-09T04:26:34;16.70;;;3.33;;
15982;SDS011;14442;50.196;8.096;2023-10-09T04:29:02;11.57;;;2.63;;
15982;SDS011;14442;50.196;8.096;2023-10-09T04:31:30;14.57;;;2.73;;
15982;SDS011;14442;50.196;8.096;2023-10-09T04:34:04;9.47;;;2.83;;
15982;SDS011;14442;50.196;8.096;2023-10-09T04:36:54;19.30;;;2.57;;
15982;SDS011;14442;50.196;8.096;2023-10-09T04:39:25;16.07;;;2.13;;
15982;SDS011;14442;50.196;8.096;2023-10-09T04:42:01;9.77;;;2.20;;
15982;SDS011;14442;50.196;8.096;2023-10-09T04:44:46;9.33;;;2.20;;
15982;SDS011;14442;50.196;8.096;2023-10-09T04:47:31;14.00;;;2.40;;
15982;SDS011;14442;50.196;8.096;2023-10-09T04:50:03;9.87;;;1.77;;
15982;SDS011;14442;50.196;8.096;2023-10-09T04:52:36;9.10;;;1.93;;
15982;SDS011;14442;50.196;8.096;2023-10-09T04:55:18;9.07;;;2.03;;
15982;SDS011;14442;50.196;8.096;2023-10-09T04:57:49;9.43;;;2.53;;
15982;SDS011;14442;50.196;8.096;2023-10-09T05:00:27;9.10;;;1.73;;
15982;SDS011;14442;50.196;8.096;2023-10-09T05:03:12;13.03;;;1.77;;
15982;SDS011;14442;50.196;8.096;2023-10-09T05:05:53;3.57;;;1.17;;
15982;SDS011;14442;50.196;8.096;2023-10-09T05:08:25;4.60;;;1.90;;
15982;SDS011;14442;50.196;8.096;2023-10-09T05:10:54;7.37;;;1.70;;
15982;SDS011;14442;50.196;8.096;2023-10-09T05:13:40;3.57;;;1.70;;
15982;SDS011;14442;50.196;8.096;2023-10-09T05:16:09;7.63;;;1.90;;
15982;SDS011;14442;50.196;8.096;2023-10-09T05:18:43;7.03;;;1.47;;
15982;SDS011;14442;50.196;8.096;2023-10-09T05:21:11;3.47;;;1.27;;
15982;SDS011;14442;50.196;8.096;2023-10-09T05:23:56;5.63;;;1.40;;
15982;SDS011;14442;50.196;8.096;2023-10-09T05:26:42;4.37;;;1.43;;
15982;SDS011;14442;50.196;8.096;2023-10-09T05:29:16;3.83;;;1.10;;
15982;SDS011;14442;50.196;8.096;2023-10-09T05:31:59;4.20;;;1.20;;
15982;SDS011;14442;50.196;8.096;2023-10-09T05:34:29;4.27;;;1.40;;
15982;SDS011;14442;50.196;8.096;2023-10-09T05:37:01;3.23;;;1.20;;
15982;SDS011;14442;50.196;8.096;2023-10-09T05:39:42;6.83;;;1.70;;
15982;SDS011;14442;50.196;8.096;2023-10-09T05:42:23;4.43;;;1.37;;
15982;SDS011;14442;50.196;8.096;2023-10-09T05:44:53;3.47;;;1.20;;
15982;SDS011;14442;50.196;8.096;2023-10-09T05:47:37;2.93;;;1.13;;
15982;SDS011;14442;50.196;8.096;2023-10-09T05:50:12;4.00;;;1.50;;
15982;SDS011;14442;50.196;8.096;2023-10-09T05:52:58;1.27;;;1.13;;
15982;SDS011;14442;50.196;8.096;2023-10-09T05:55:42;4.30;;;1.40;;
15982;SDS011;14442;50.196;8.096;2023-10-09T05:58:33;2.27;;;1.33;;
15982;SDS011;14442;50.196;8.096;2023-10-09T06:01:23;2.00;;;0.93;;
15982;SDS011;14442;50.196;8.096;2023-10-09T06:04:07;2.27;;;0.83;;
15982;SDS011;14442;50.196;8.096;2023-10-09T06:06:40;4.53;;;1.50;;
15982;SDS011;14442;50.196;8.096;2023-10-09T06:09:12;4.33;;;1.50;;
15982;SDS011;14442;50.196;8.096;2023-10-09T06:11:57;2.40;;;1.13;;
15982;SDS011;14442;50.196;8.096;2023-10-09T06:14:37;1.87;;;1.03;;
15982;SDS011;14442;50.196;8.096;2023-10-09T06:17:23;2.63;;;1.10;;
15982;SDS011;14442;50.196;8.096;2023-10-09T06:19:49;1.50;;;0.77;;
15982;SDS011;14442;50.196;8.096;2023-10-09T06:22:23;2.30;;;1.10;;
15982;SDS011;14442;50.196;8.096;2023-10-09T06:25:12;2.83;;;1.10;;
15982;SDS011;14442;50.196;8.096;2023-10-09T06:27:43;1.80;;;1.17;;
15982;SDS011;14442;50.196;8.096;2023-10-09T06:30:26;0.90;;;0.90;;
15982;SDS011;14442;50.196;8.096;2023-10-09T06:32:54;2.17;;;1.10;;
15982;SDS011;14442;50.196;8.096;2023-10-09T06:35:44;1.67;;;1.17;;
15982;SDS011;14442;50.196;8.096;2023-10-09T06:38:18;1.87;;;0.93;;
15982;SDS011;14442;50.196;8.096;2023-10-09T06:40:49;4.37;;;1.33;;
15982;SDS011;14442;50.196;8.096;2023-10-09T06:43:59;1.33;;;0.83;;
15982;SDS011;14442;50.196;8.096;2023-10-09T06:46:30;2.67;;;1.30;;
15982;SDS011;14442;50.196;8.096;2023-10-09T06:49:09;1.23;;;1.00;;
15982;SDS011;14442;50.196;8.096;2023-10-09T06:51:55;1.43;;;1.10;;
15982;SDS011;14442;50.196;8.096;2023-10-09T06:54:38;2.77;;;1.10;;
15982;SDS011;14442;50.196;8.096;2023-10-09T06:57:15;1.10;;;1.00;;
15982;SDS011;14442;50.196;8.096;2023-10-09T07:00:03;2.00;;;1.10;;
15982;SDS011;14442;50.196;8.096;2023-10-09T07:02:48;1.47;;;0.93;;
15982;SDS011;14442;50.196;8.096;2023-10-09T07:05:15;1.20;;;1.10;;
15982;SDS011;14442;50.196;8.096;2023-10-09T07:07:43;1.90;;;1.00;;
15982;SDS011;14442;50.196;8.096;2023-10-09T07:10:19;0.97;;;0.73;;
15982;SDS011;14442;50.196;8.096;2023-10-09T07:12:59;1.07;;;0.97;;
15982;SDS011;14442;50.196;8.096;2023-10-09T07:15:27;1.63;;;1.10;;
15982;SDS011;14442;50.196;8.096;2023-10-09T07:18:11;2.70;;;0.90;;
15982;SDS011;14442;50.196;8.096;2023-10-09T07:21:05;1.33;;;0.80;;
15982;SDS011;14442;50.196;8.096;2023-10-09T07:23:36;1.33;;;1.10;;
15982;SDS011;14442;50.196;8.096;2023-10-09T07:26:13;1.50;;;1.00;;
15982;SDS011;14442;50.196;8.096;2023-10-09T07:28:50;2.23;;;1.20;;
15982;SDS011;14442;50.196;8.096;2023-10-09T07:31:25;1.43;;;1.07;;
15982;SDS011;14442;50.196;8.096;2023-10-09T07:33:54;1.00;;;0.77;;
15982;SDS011;14442;50.196;8.096;2023-10-09T07:36:24;1.97;;;0.80;;
15982;SDS011;14442;50.196;8.096;2023-10-09T07:39:03;0.83;;;0.80;;
15982;SDS011;14442;50.196;8.096;2023-10-09T07:41:38;0.90;;;0.87;;
15982;SDS011;14442;50.196;8.096;2023-10-09T07:44:11;1.50;;;1.10;;
15982;SDS011;14442;50.196;8.096;2023-10-09T07:47:01;2.00;;;1.10;;
15982;SDS011;14442;50.196;8.096;2023-10-09T07:49:44;1.00;;;0.90;;
15982;SDS011;14442;50.196;8.096;2023-10-09T07:52:18;1.90;;;1.03;;
15982;SDS011;14442;50.196;8.096;2023-10-09T07:54:48;0.63;;;0.63;;
15982;SDS011;14442;50.196;8.096;2023-10-09T07:57:27;1.27;;;1.20;;
15982;SDS011;14442;50.196;8.096;2023-10-09T07:59:55;1.57;;;1.20;;
15982;SDS011;14442;50.196;8.096;2023-10-09T08:02:37;1.23;;;1.13;;
15982;SDS011;14442;50.196;8.096;2023-10-09T08:05:04;3.23;;;1.10;;
15982;SDS011;14442;50.196;8.096;2023-10-09T08:07:32;2.50;;;1.20;;
15982;SDS011;14442;50.196;8.096;2023-10-09T08:10:02;2.07;;;1.17;;
15982;SDS011;14442;50.196;8.096;2023-10-09T08:12:47;1.87;;;1.20;;
15982;SDS011;14442;50.196;8.096;2023-10-09T08:15:47;3.20;;;1.07;;
15982;SDS011;14442;50.196;8.096;2023-10-09T08:18:21;3.63;;;1.30;;
15982;SDS011;14442;50.196;8.096;2023-10-09T08:20:54;2.40;;;0.93;;
15982;SDS011;14442;50.196;8.096;2023-10-09T08:23:38;3.10;;;1.30;;
15982;SDS011;14442;50.196;8.096;2023-10-09T08:26:17;2.37;;;1.33;;
15982;SDS011;14442;50.196;8.096;2023-10-09T08:28:54;2.97;;;1.50;;
15982;SDS011;14442;50.196;8.096;2023-10-09T08:31:40;2.57;;;1.60;;
15982;SDS011;14442;50.196;8.096;2023-10-09T08:34:11;5.37;;;1.27;;
15982;SDS011;14442;50.196;8.096;2023-10-09T08:36:49;2.53;;;1.60;;
15982;SDS011;14442;50.196;8.096;2023-10-09T08:39:17;3.37;;;1.63;;
15982;SDS011;14442;50.196;8.096;2023-10-09T08:41:50;2.20;;;1.40;;
15982;SDS011;14442;50.196;8.096;2023-10-09T08:44:18;3.83;;;1.63;;
15982;SDS011;14442;50.196;8.096;2023-10-09T08:46:49;2.93;;;1.67;;
15982;SDS011;14442;50.196;8.096;2023-10-09T08:49:16;3.10;;;1.77;;
15982;SDS011;14442;50.196;8.096;2023-10-09T08:51:43;2.67;;;1.63;;
15982;SDS011;14442;50.196;8.096;2023-10-09T08:54:12;5.17;;;1.83;;
15982;SDS011;14442;50.196;8.096;2023-10-09T08:56:40;2.47;;;1.43;;
15982;SDS011;14442;50.196;8.096;2023-10-09T08:59:14;5.00;;;1.97;;
15982;SDS011;14442;50.196;8.096;2023-10-09T09:01:44;5.73;;;1.60;;
15982;SDS011;14442;50.196;8.096;2023-10-09T09:07:06;2.93;;;1.80;;
15982;SDS011;14442;50.196;8.096;2023-10-09T09:09:54;2.83;;;1.70;;
15982;SDS011;14442;50.196;8.096;2023-10-09T09:12:22;2.77;;;1.63;;
15982;SDS011;14442;50.196;8.096;2023-10-09T09:14:49;4.40;;;1.73;;
15982;SDS011;14442;50.196;8.096;2023-10-09T09:17:22;3.13;;;1.47;;
15982;SDS011;14442;50.196;8.096;2023-10-09T09:19:56;2.83;;;1.40;;
15982;SDS011;14442;50.196;8.096;2023-10-09T09:22:23;2.93;;;1.70;;
15982;SDS011;14442;50.196;8.096;2023-10-09T09:24:56;1.73;;;1.60;;
15982;SDS011;14442;50.196;8.096;2023-10-09T09:27:43;2.83;;;1.93;;
15982;SDS011;14442;50.196;8.096;2023-10-09T09:30:24;4.70;;;1.53;;
15982;SDS011;14442;50.196;8.096;2023-10-09T09:32:58;2.83;;;1.53;;
15982;SDS011;14442;50.196;8.096;2023-10-09T09:35:56;1.23;;;1.13;;
15982;SDS011;14442;50.196;8.096;2023-10-09T09:38:25;1.53;;;1.30;;
15982;SDS011;14442;50.196;8.096;2023-10-09T09:40:54;3.77;;;1.50;;
15982;SDS011;14442;50.196;8.096;2023-10-09T09:43:22;1.60;;;1.50;;
15982;SDS011;14442;50.196;8.096;2023-10-09T09:45:50;2.53;;;1.73;;
15982;SDS011;14442;50.196;8.096;2023-10-09T09:48:21;2.37;;;1.57;;
15982;SDS011;14442;50.196;8.096;2023-10-09T09:50:52;3.87;;;1.80;;
15982;SDS011;14442;50.196;8.096;2023-10-09T09:53:20;2.00;;;1.63;;
15982;SDS011;14442;50.196;8.096;2023-10-09T09:55:49;2.07;;;1.77;;
15982;SDS011;14442;50.196;8.096;2023-10-09T09:58:22;2.70;;;1.40;;
15982;SDS011;14442;50.196;8.096;2023-10-09T10:00:52;1.90;;;1.60;;
15982;SDS011;14442;50.196;8.096;2023-10-09T10:03:26;1.40;;;1.30;;
15982;SDS011;14442;50.196;8.096;2023-10-09T10:05:58;1.67;;;1.13;;
15982;SDS011;14442;50.196;8.096;2023-10-09T10:08:31;2.00;;;1.40;;
15982;SDS011;14442;50.196;8.096;2023-10-09T10:10:58;1.50;;;1.40;;
15982;SDS011;14442;50.196;8.096;2023-10-09T10:16:28;1.73;;;1.60;;
15982;SDS011;14442;50.196;8.096;2023-10-09T10:19:00;1.60;;;1.50;;
15982;SDS011;14442;50.196;8.096;2023-10-09T10:21:46;2.27;;;1.67;;
15982;SDS011;14442;50.196;8.096;2023-10-09T10:27:20;2.03;;;1.60;;
15982;SDS011;14442;50.196;8.096;2023-10-09T10:33:02;2.80;;;1.43;;
15982;SDS011;14442;50.196;8.096;2023-10-09T10:35:37;1.80;;;1.53;;
15982;SDS011;14442;50.196;8.096;2023-10-09T10:38:30;1.70;;;1.47;;
15982;SDS011;14442;50.196;8.096;2023-10-09T10:41:09;3.27;;;1.90;;
15982;SDS011;14442;50.196;8.096;2023-10-09T10:43:42;1.70;;;1.60;;
15982;SDS011;14442;50.196;8.096;2023-10-09T10:46:25;2.13;;;1.70;;
15982;SDS011;14442;50.196;8.096;2023-10-09T10:49:03;1.90;;;1.37;;
15982;SDS011;14442;50.196;8.096;2023-10-09T10:51:40;1.60;;;1.50;;
15982;SDS011;14442;50.196;8.096;2023-10-09T10:54:19;1.83;;;1.70;;
15982;SDS011;14442;50.196;8.096;2023-10-09T10:57:19;1.50;;;1.40;;
15982;SDS011;14442;50.196;8.096;2023-10-09T10:59:55;1.30;;;1.20;;
15982;SDS011;14442;50.196;8.096;2023-10-09T11:02:47;1.80;;;1.60;;
15982;SDS011;14442;50.196;8.096;2023-10-09T11:05:13;1.73;;;1.30;;
15982;SDS011;14442;50.196;8.096;2023-10-09T11:07:48;1.30;;;1.30;;
15982;SDS011;14442;50.196;8.096;2023-10-09T11:10:23;1.47;;;1.37;;
15982;SDS011;14442;50.196;8.096;2023-10-09T11:12:58;1.43;;;1.30;;
15982;SDS011;14442;50.196;8.096;2023-10-09T11:15:53;2.00;;;1.40;;
15982;SDS011;14442;50.196;8.096;2023-10-09T11:18:39;1.87;;;1.70;;
15982;SDS011;14442;50.196;8.096;2023-10-09T11:21:12;1.50;;;1.40;;
15982;SDS011;14442;50.196;8.096;2023-10-09T11:23:56;1.70;;;1.57;;
15982;SDS011;14442;50.196;8.096;2023-10-09T11:26:47;1.83;;;1.40;;
15982;SDS011;14442;50.196;8.096;2023-10-09T11:29:21;2.03;;;1.83;;
15982;SDS011;14442;50.196;8.096;2023-10-09T11:31:58;2.13;;;1.50;;
15982;SDS011;14442;50.196;8.096;2023-10-09T11:34:26;1.70;;;1.60;;
15982;SDS011;14442;50.196;8.096;2023-10-09T11:36:57;1.43;;;1.37;;
15982;SDS011;14442;50.196;8.096;2023-10-09T11:39:24;1.63;;;1.53;;
15982;SDS011;14442;50.196;8.096;2023-10-09T11:42:09;1.10;;;1.00;;
15982;SDS011;14442;50.196;8.096;2023-10-09T11:44:56;1.47;;;1.37;;
15982;SDS011;14442;50.196;8.096;2023-10-09T11:47:33;1.63;;;1.53;;
15982;SDS011;14442;50.196;8.096;2023-10-09T11:50:01;1.53;;;1.43;;
15982;SDS011;14442;50.196;8.096;2023-10-09T11:52:54;2.40;;;1.50;;
15982;SDS011;14442;50.196;8.096;2023-10-09T11:55:33;1.70;;;1.60;;
15982;SDS011;14442;50.196;8.096;2023-10-09T11:58:03;1.20;;;1.10;;
15982;SDS011;14442;50.196;8.096;2023-10-09T12:00:33;1.40;;;1.30;;
15982;SDS011;14442;50.196;8.096;2023-10-09T12:03:11;1.60;;;1.50;;
15982;SDS011;14442;50.196;8.096;2023-10-09T12:05:39;1.53;;;1.43;;
15982;SDS011;14442;50.196;8.096;2023-10-09T12:08:09;1.40;;;1.30;;
15982;SDS011;14442;50.196;8.096;2023-10-09T12:10:36;1.40;;;1.30;;
15982;SDS011;14442;50.196;8.096;2023-10-09T12:13:05;1.80;;;1.70;;
15982;SDS011;14442;50.196;8.096;2023-10-09T12:15:34;1.50;;;1.40;;
15982;SDS011;14442;50.196;8.096;2023-10-09T12:18:04;1.63;;;1.50;;
15982;SDS011;14442;50.196;8.096;2023-10-09T12:20:34;1.53;;;1.30;;
15982;SDS011;14442;50.196;8.096;2023-10-09T12:23:01;1.93;;;1.40;;
15982;SDS011;14442;50.196;8.096;2023-10-09T12:25:31;2.07;;;1.87;;
15982;SDS011;14442;50.196;8.096;2023-10-09T12:28:00;1.50;;;1.40;;
15982;SDS011;14442;50.196;8.096;2023-10-09T12:30:27;1.53;;;1.43;;
15982;SDS011;14442;50.196;8.096;2023-10-09T12:32:56;1.57;;;1.43;;
15982;SDS011;14442;50.196;8.096;2023-10-09T12:35:23;1.50;;;1.40;;
15982;SDS011;14442;50.196;8.096;2023-10-09T12:37:51;1.87;;;1.53;;
15982;SDS011;14442;50.196;8.096;2023-10-09T12:40:19;4.63;;;1.80;;
15982;SDS011;14442;50.196;8.096;2023-10-09T12:42:50;3.50;;;1.60;;
15982;SDS011;14442;50.196;8.096;2023-10-09T12:45:20;5.13;;;1.83;;
15982;SDS011;14442;50.196;8.096;2023-10-09T12:47:51;2.67;;;1.73;;
15982;SDS011;14442;50.196;8.096;2023-10-09T12:50:22;2.93;;;1.63;;
15982;SDS011;14442;50.196;8.096;2023-10-09T12:52:53;5.13;;;1.77;;
15982;SDS011;14442;50.196;8.096;2023-10-09T12:55:20;4.83;;;2.50;;
15982;SDS011;14442;50.196;8.096;2023-10-09T12:57:56;5.27;;;2.00;;
15982;SDS011;14442;50.196;8.096;2023-10-09T13:00:26;3.60;;;1.90;;
15982;SDS011;14442;50.196;8.096;2023-10-09T13:02:57;3.93;;;2.17;;
15982;SDS011;14442;50.196;8.096;2023-10-09T13:05:27;3.80;;;2.13;;
15982;SDS011;14442;50.196;8.096;2023-10-09T13:07:54;3.97;;;2.13;;
15982;SDS011;14442;50.196;8.096;2023-10-09T13:10:23;9.47;;;2.40;;
15982;SDS011;14442;50.196;8.096;2023-10-09T13:12:51;6.90;;;2.20;;
15982;SDS011;14442;50.196;8.096;2023-10-09T13:15:21;10.70;;;2.47;;
15982;SDS011;14442;50.196;8.096;2023-10-09T13:17:47;5.83;;;2.77;;
15982;SDS011;14442;50.196;8.096;2023-10-09T13:20:18;8.03;;;2.13;;
15982;SDS011;14442;50.196;8.096;2023-10-09T13:22:46;9.10;;;2.87;;
15982;SDS011;14442;50.196;8.096;2023-10-09T13:25:13;6.80;;;3.40;;
15982;SDS011;14442;50.196;8.096;2023-10-09T13:27:42;11.40;;;3.23;;
15982;SDS011;14442;50.196;8.096;2023-10-09T13:30:15;8.00;;;3.07;;
15982;SDS011;14442;50.196;8.096;2023-10-09T13:32:47;5.23;;;2.90;;
15982;SDS011;14442;50.196;8.096;2023-10-09T13:35:15;6.97;;;3.57;;
15982;SDS011;14442;50.196;8.096;2023-10-09T13:37:43;5.50;;;2.90;;
15982;SDS011;14442;50.196;8.096;2023-10-09T13:40:20;5.27;;;3.23;;
15982;SDS011;14442;50.196;8.096;2023-10-09T13:42:53;7.20;;;2.70;;
15982;SDS011;14442;50.196;8.096;2023-10-09T13:45:24;7.37;;;2.93;;
15982;SDS011;14442;50.196;8.096;2023-10-09T13:47:54;3.80;;;2.73;;
15982;SDS011;14442;50.196;8.096;2023-10-09T13:50:26;6.90;;;2.83;;
15982;SDS011;14442;50.196;8.096;2023-10-09T13:52:57;6.27;;;3.07;;
15982;SDS011;14442;50.196;8.096;2023-10-09T13:55:25;4.50;;;2.77;;
15982;SDS011;14442;50.196;8.096;2023-10-09T13:57:56;3.77;;;2.80;;
15982;SDS011;14442;50.196;8.096;2023-10-09T14:00:23;4.20;;;2.37;;
15982;SDS011;14442;50.196;8.096;2023-10-09T14:02:59;6.70;;;2.90;;
15982;SDS011;14442;50.196;8.096;2023-10-09T14:05:29;5.97;;;3.60;;
15982;SDS011;14442;50.196;8.096;2023-10-09T14:07:55;6.93;;;3.43;;
15982;SDS011;14442;50.196;8.096;2023-10-09T14:10:26;5.50;;;3.10;;
15982;SDS011;14442;50.196;8.096;2023-10-09T14:12:55;6.53;;;3.33;;
15982;SDS011;14442;50.196;8.096;2023-10-09T14:15:22;4.50;;;2.90;;
15982;SDS011;14442;50.196;8.096;2023-10-09T14:17:49;5.07;;;3.07;;
15982;SDS011;14442;50.196;8.096;2023-10-09T14:20:21;5.20;;;3.10;;
15982;SDS011;14442;50.196;8.096;2023-10-09T14:22:56;3.70;;;2.77;;
15982;SDS011;14442;50.196;8.096;2023-10-09T14:25:32;4.33;;;3.17;;
15982;SDS011;14442;50.196;8.096;2023-10-09T14:28:02;3.60;;;2.57;;
15982;SDS011;14442;50.196;8.096;2023-10-09T14:30:32;6.53;;;2.70;;
15982;SDS011;14442;50.196;8.096;2023-10-09T14:33:07;3.80;;;2.70;;
15982;SDS011;14442;50.196;8.096;2023-10-09T14:35:37;4.23;;;3.07;;
15982;SDS011;14442;50.196;8.096;2023-10-09T14:38:04;4.03;;;2.40;;
15982;SDS011;14442;50.196;8.096;2023-10-09T14:40:39;3.17;;;2.47;;
15982;SDS011;14442;50.196;8.096;2023-10-09T14:43:07;4.13;;;2.67;;
15982;SDS011;14442;50.196;8.096;2023-10-09T14:45:43;4.07;;;2.60;;
15982;SDS011;14442;50.196;8.096;2023-10-09T14:48:13;3.43;;;2.50;;
15982;SDS011;14442;50.196;8.096;2023-10-09T14:50:45;3.80;;;3.07;;
15982;SDS011;14442;50.196;8.096;2023-10-09T14:53:12;3.13;;;2.10;;
15982;SDS011;14442;50.196;8.096;2023-10-09T14:55:41;3.30;;;2.63;;
15982;SDS011;14442;50.196;8.096;2023-10-09T14:58:10;3.70;;;2.73;;
15982;SDS011;14442;50.196;8.096;2023-10-09T15:00:37;2.60;;;2.40;;
15982;SDS011;14442;50.196;8.096;2023-10-09T15:03:09;3.53;;;2.23;;
15982;SDS011;14442;50.196;8.096;2023-10-09T15:05:39;4.93;;;2.73;;
15982;SDS011;14442;50.196;8.096;2023-10-09T15:08:07;2.90;;;2.60;;
15982;SDS011;14442;50.196;8.096;2023-10-09T15:10:36;5.43;;;2.50;;
15982;SDS011;14442;50.196;8.096;2023-10-09T15:13:12;4.87;;;2.67;;
15982;SDS011;14442;50.196;8.096;2023-10-09T15:15:40;5.53;;;2.80;;
15982;SDS011;14442;50.196;8.096;2023-10-09T15:18:07;3.83;;;2.30;;
15982;SDS011;14442;50.196;8.096;2023-10-09T15:20:34;3.30;;;2.17;;
15982;SDS011;14442;50.196;8.096;2023-10-09T15:23:01;3.03;;;2.67;;
15982;SDS011;14442;50.196;8.096;2023-10-09T15:25:28;2.77;;;2.27;;
15982;SDS011;14442;50.196;8.096;2023-10-09T15:27:56;3.70;;;2.60;;
15982;SDS011;14442;50.196;8.096;2023-10-09T15:30:23;4.27;;;2.70;;
15982;SDS011;14442;50.196;8.096;2023-10-09T15:32:52;3.83;;;2.73;;
15982;SDS011;14442;50.196;8.096;2023-10-09T15:35:20;2.80;;;2.60;;
15982;SDS011;14442;50.196;8.096;2023-10-09T15:37:47;2.80;;;2.60;;